Time;durP1;ratioP1;P1;durP2;ratioP2;P2;SDS_P1;SDS_P2;PMS_P1;PMS_P2;Temp;Humidity;BMP_temperature;BMP_pressure;BME280_temperature;BME280_humidity;BME280_pressure;Samples;Min_cycle;Max_cycle;Signal;HPM_P1;HPM_P2
2022/12/06 00:00:35;;;;;;;159.70;88.90;;;;;;;3.12;89.87;98933.86;86982;1296;22441;-81
2022/12/06 00:02:41;;;;;;;143.40;81.40;;;;;;;3.13;90.02;98932.11;86915;1305;22478;-84
2022/12/06 00:04:45;;;;;;;146.90;85.60;;;;;;;3.14;90.21;98927.41;86887;1296;98657;-81
2022/12/06 00:06:50;;;;;;;153.50;90.10;;;;;;;3.14;90.27;98923.04;87341;1287;23276;-83
2022/12/06 00:08:52;;;;;;;165.30;89.50;;;;;;;3.15;90.23;98921.48;87207;1289;22559;-83
2022/12/06 00:10:53;;;;;;;159.50;90.50;;;;;;;3.16;90.19;98921.46;87216;1315;98621;-83
2022/12/06 00:12:54;;;;;;;152.80;87.70;;;;;;;3.17;90.27;98918.65;87056;1314;22582;-85
2022/12/06 00:14:55;;;;;;;150.40;84.20;;;;;;;3.18;90.09;98910.30;87304;1296;22174;-82
2022/12/06 00:16:56;;;;;;;149.10;83.10;;;;;;;3.19;89.98;98908.37;86946;1314;98599;-83
2022/12/06 00:18:58;;;;;;;145.50;80.70;;;;;;;3.20;90.14;98899.49;87175;1300;22864;-83
2022/12/06 00:21:13;;;;;;;145.20;82.20;;;;;;;3.20;90.20;98898.81;86915;1291;22691;-82
2022/12/06 00:23:14;;;;;;;131.60;76.00;;;;;;;3.19;90.20;98898.83;87044;1311;99252;-82
2022/12/06 00:25:15;;;;;;;135.40;72.20;;;;;;;3.19;90.16;98901.09;87106;1308;22588;-83
2022/12/06 00:27:16;;;;;;;162.30;83.50;;;;;;;3.18;90.22;98896.75;87025;1311;22607;-80
2022/12/06 00:29:22;;;;;;;155.00;80.90;;;;;;;3.18;90.20;98895.55;86935;1311;98459;-79
2022/12/06 00:31:26;;;;;;;147.50;83.90;;;;;;;3.16;90.20;98894.03;86764;1290;22647;-79
2022/12/06 00:33:28;;;;;;;142.50;84.10;;;;;;;3.13;90.19;98890.60;86392;1285;99656;-78
2022/12/06 00:35:29;;;;;;;;;;;;;;;3.11;90.10;98890.48;86179;1289;23684;-78
2022/12/06 00:37:30;;;;;;;149.80;83.30;;;;;;;3.06;90.35;98891.63;86287;1287;22530;-78
2022/12/06 00:39:31;;;;;;;154.50;86.90;;;;;;;3.05;90.09;98888.34;86246;1285;98815;-80
2022/12/06 00:41:32;;;;;;;;;;;;;;;3.03;90.29;98884.72;86496;1292;24650;-80
2022/12/06 00:43:34;;;;;;;159.00;80.90;;;;;;;3.02;90.13;98879.55;86415;1282;22523;-80
2022/12/06 00:45:35;;;;;;;150.50;77.90;;;;;;;3.01;90.25;98879.89;86418;1311;99995;-79
2022/12/06 00:47:36;;;;;;;124.50;72.10;;;;;;;3.00;90.30;98886.69;86511;1287;25974;-78
2022/12/06 00:49:38;;;;;;;139.90;77.90;;;;;;;2.96;90.15;98906.91;86494;1285;23429;-76
2022/12/06 00:51:39;;;;;;;144.30;80.10;;;;;;;2.93;90.18;98909.56;86211;1290;99908;-76
2022/12/06 00:53:41;;;;;;;160.00;84.40;;;;;;;2.91;90.25;98905.95;86389;1287;22508;-76
2022/12/06 00:55:43;;;;;;;147.90;82.90;;;;;;;2.91;90.29;98901.44;86349;1290;22493;-78
2022/12/06 00:57:44;;;;;;;168.30;85.80;;;;;;;2.90;90.23;98895.56;86270;1290;98813;-77
2022/12/06 00:59:45;;;;;;;;;;;;;;;2.92;90.34;98895.35;86321;1290;22566;-78
2022/12/06 01:01:46;;;;;;;148.50;85.00;;;;;;;2.93;90.34;98891.68;86368;1287;22735;-76
2022/12/06 01:03:52;;;;;;;154.50;81.40;;;;;;;2.93;90.20;98887.17;86241;1289;100049;-78
2022/12/06 01:05:53;;;;;;;151.60;82.80;;;;;;;2.94;90.32;98886.48;86352;1286;25846;-77
2022/12/06 01:07:54;;;;;;;158.10;83.60;;;;;;;2.95;90.36;98879.16;86451;1285;24201;-77
2022/12/06 01:09:55;;;;;;;153.40;84.90;;;;;;;2.96;90.48;98875.30;86179;1312;98466;-77
2022/12/06 01:11:57;;;;;;;161.80;81.50;;;;;;;2.97;90.49;98871.48;86277;1290;22515;-76
2022/12/06 01:13:58;;;;;;;165.30;85.20;;;;;;;2.98;90.45;98867.98;86254;1294;22603;-77
2022/12/06 01:16:08;;;;;;;149.50;84.10;;;;;;;2.99;90.50;98867.45;86387;1286;99187;-76
2022/12/06 01:18:09;;;;;;;159.80;86.00;;;;;;;2.98;90.43;98868.16;86468;1282;25543;-76
2022/12/06 01:20:10;;;;;;;165.10;85.70;;;;;;;2.98;90.61;98868.87;86321;1289;22515;-77
2022/12/06 01:22:11;;;;;;;156.00;85.80;;;;;;;2.99;90.61;98866.92;86168;1283;99590;-76
2022/12/06 01:24:13;;;;;;;144.00;82.70;;;;;;;3.00;90.34;98866.20;86278;1290;22733;-76
2022/12/06 01:26:20;;;;;;;152.80;84.90;;;;;;;3.01;90.48;98865.32;86264;1288;22614;-76
2022/12/06 01:28:21;;;;;;;158.00;81.80;;;;;;;3.01;90.41;98862.55;86203;1295;99755;-77
2022/12/06 01:30:22;;;;;;;143.00;81.90;;;;;;;3.01;90.24;98859.08;86190;1282;22530;-76
2022/12/06 01:32:23;;;;;;;154.10;84.70;;;;;;;3.02;90.56;98851.25;86159;1288;23660;-76
2022/12/06 01:34:24;;;;;;;147.50;82.00;;;;;;;3.00;90.66;98839.13;86123;1283;99290;-76
2022/12/06 01:36:25;;;;;;;148.40;81.70;;;;;;;2.99;90.51;98836.38;87040;1285;23201;-75
2022/12/06 01:38:26;;;;;;;;;;;;;;;2.98;90.66;98834.49;86651;1283;23942;-74
2022/12/06 01:40:48;;;;;;;140.60;74.80;;;;;;;2.98;90.41;98834.51;86448;1285;84659;-77
2022/12/06 01:42:49;;;;;;;145.90;77.70;;;;;;;2.98;90.57;98829.30;86320;1288;22597;-75
2022/12/06 01:44:55;;;;;;;144.20;77.90;;;;;;;2.98;90.85;98827.04;86451;1290;22784;-74
2022/12/06 01:46:56;;;;;;;142.80;76.60;;;;;;;2.97;90.53;98823.41;86251;1290;99594;-73
2022/12/06 01:49:00;;;;;;;143.40;79.20;;;;;;;2.96;90.60;98823.42;86293;1306;22682;-76
2022/12/06 01:51:02;;;;;;;155.60;80.70;;;;;;;2.94;90.43;98821.73;86438;1285;26500;-75
2022/12/06 01:53:09;;;;;;;145.10;80.00;;;;;;;2.93;90.54;98818.28;86313;1288;99693;-75
2022/12/06 01:55:15;;;;;;;153.00;78.70;;;;;;;2.94;90.50;98820.88;86356;1286;25380;-76
2022/12/06 01:57:17;;;;;;;152.00;81.70;;;;;;;2.93;90.41;98819.14;86396;1292;25406;-75
2022/12/06 01:59:19;;;;;;;164.40;85.90;;;;;;;2.93;90.42;98820.35;86195;1290;100012;-76
2022/12/06 02:01:21;;;;;;;170.90;85.20;;;;;;;2.93;90.58;98815.33;86405;1292;24826;-74
2022/12/06 02:03:26;;;;;;;160.20;86.60;;;;;;;2.95;90.48;98815.10;86309;1290;22627;-75
2022/12/06 02:05:29;;;;;;;155.70;87.30;;;;;;;2.96;90.48;98809.02;86378;1288;98579;-75
2022/12/06 02:07:31;;;;;;;169.30;87.70;;;;;;;2.96;90.57;98808.85;86385;1288;22569;-76
2022/12/06 02:09:34;;;;;;;161.30;89.00;;;;;;;2.95;90.33;98806.41;86279;1311;99738;-75
2022/12/06 02:11:36;;;;;;;156.20;85.60;;;;;;;2.94;90.46;98803.00;86289;1285;220161;-76
2022/12/06 02:13:38;;;;;;;181.20;90.20;;;;;;;2.93;90.77;98799.19;86316;1288;23384;-75
2022/12/06 02:15:49;;;;;;;179.60;93.80;;;;;;;2.93;90.56;98792.23;86363;1292;99889;-76
2022/12/06 02:18:05;;;;;;;185.70;93.80;;;;;;;2.93;90.57;98786.34;86455;1285;22698;-75
2022/12/06 02:20:42;;;;;;;187.70;93.10;;;;;;;2.93;90.70;98778.88;86428;1285;23885;-76
2022/12/06 02:23:21;;;;;;;173.00;92.50;;;;;;;2.93;90.87;98769.17;86173;1285;98838;-76
2022/12/06 02:25:44;;;;;;;192.50;90.40;;;;;;;2.91;90.54;98767.64;86295;1293;22950;-76
2022/12/06 02:27:48;;;;;;;160.40;85.80;;;;;;;2.89;90.68;98766.45;86147;1289;98684;-75
2022/12/06 02:30:10;;;;;;;148.70;80.80;;;;;;;2.88;90.63;98765.25;86148;1286;22644;-76
2022/12/06 02:32:18;;;;;;;158.50;81.40;;;;;;;2.88;90.85;98763.88;86209;1293;22518;-76
2022/12/06 02:34:42;;;;;;;147.40;82.20;;;;;;;2.88;90.84;98766.14;86134;1279;100160;-76
2022/12/06 02:36:59;;;;;;;136.80;76.70;;;;;;;2.87;90.82;98764.59;86443;1287;22628;-75
2022/12/06 02:39:22;;;;;;;144.80;77.90;;;;;;;2.87;91.06;98760.24;86381;1292;25470;-75
2022/12/06 02:41:29;;;;;;;137.70;74.40;;;;;;;2.87;90.90;98753.13;86242;1288;99853;-74
2022/12/06 02:43:39;;;;;;;131.30;72.60;;;;;;;2.87;90.95;98752.26;86098;1291;27928;-75
2022/12/06 02:45:54;;;;;;;128.80;71.90;;;;;;;2.87;90.68;98749.65;86073;1288;99214;-77
2022/12/06 02:48:00;;;;;;;126.40;69.70;;;;;;;2.87;90.97;98747.92;86265;1285;23999;-74
2022/12/06 02:50:07;;;;;;;132.60;70.50;;;;;;;2.87;91.03;98746.20;86390;1296;22482;-75
2022/12/06 02:52:08;;;;;;;121.80;66.80;;;;;;;2.83;90.94;98740.36;86140;1285;99706;-76
2022/12/06 02:54:11;;;;;;;121.70;69.10;;;;;;;2.87;91.06;98737.00;86203;1308;22534;-74
2022/12/06 02:56:14;;;;;;;125.10;70.30;;;;;;;2.87;90.88;98731.08;86295;1288;22488;-74
2022/12/06 02:58:15;;;;;;;120.30;67.10;;;;;;;2.88;90.66;98723.27;86188;1296;99591;-74
2022/12/06 03:00:39;;;;;;;127.10;69.00;;;;;;;2.86;90.93;98716.70;86207;1313;22533;-74
2022/12/06 03:02:41;;;;;;;122.50;66.70;;;;;;;2.81;90.94;98704.85;86273;1293;22514;-75
2022/12/06 03:05:04;;;;;;;;;;;;;;;2.85;90.85;98707.71;86080;1302;99633;-75
2022/12/06 03:07:33;;;;;;;116.30;65.20;;;;;;;2.84;90.69;98712.77;86304;1294;22493;-75
2022/12/06 03:09:55;;;;;;;116.70;63.10;;;;;;;2.83;90.97;98709.84;86151;1296;99682;-73
2022/12/06 03:12:10;;;;;;;128.30;67.50;;;;;;;2.83;90.93;98712.96;86295;1285;22470;-75
2022/12/06 03:14:18;;;;;;;126.90;68.60;;;;;;;2.83;90.97;98712.62;86263;1285;22902;-74
2022/12/06 03:16:30;;;;;;;124.10;66.50;;;;;;;2.83;90.90;98710.88;86067;1289;100234;-73
2022/12/06 03:19:00;;;;;;;118.50;62.70;;;;;;;2.84;90.76;98712.59;86224;1288;23043;-73
2022/12/06 03:21:12;;;;;;;115.80;65.90;;;;;;;2.84;90.92;98712.77;86378;1287;22644;-74
2022/12/06 03:23:23;;;;;;;126.50;68.60;;;;;;;2.85;90.96;98712.75;86206;1290;99996;-73
2022/12/06 03:25:25;;;;;;;121.40;68.00;;;;;;;2.86;91.03;98711.49;86147;1289;22448;-73
2022/12/06 03:27:29;;;;;;;118.80;69.70;;;;;;;2.87;91.00;98711.83;86253;1280;24359;-75
2022/12/06 03:29:33;;;;;;;113.50;66.20;;;;;;;2.89;91.03;98699.83;86397;1300;100423;-74
2022/12/06 03:31:37;;;;;;;117.90;63.60;;;;;;;2.88;90.71;98693.59;86298;1286;22474;-76
2022/12/06 03:33:48;;;;;;;108.20;59.20;;;;;;;2.87;90.76;98696.73;86169;1288;100360;-73
2022/12/06 03:35:53;;;;;;;113.80;60.40;;;;;;;2.86;90.97;98704.73;86354;1288;24269;-73
2022/12/06 03:38:00;;;;;;;103.80;61.30;;;;;;;2.84;90.74;98713.81;86138;1286;22486;-74
2022/12/06 03:40:15;;;;;;;108.80;63.70;;;;;;;2.82;90.89;98711.07;86351;1288;99997;-75
2022/12/06 03:42:18;;;;;;;115.90;64.60;;;;;;;2.81;90.86;98708.67;86265;1295;24292;-75
2022/12/06 03:44:20;;;;;;;109.60;61.50;;;;;;;2.81;90.58;98703.80;86448;1291;22562;-74
2022/12/06 03:46:26;;;;;;;117.70;65.10;;;;;;;2.80;90.97;98697.77;86132;1288;100182;-73
2022/12/06 03:48:37;;;;;;;111.10;63.20;;;;;;;2.80;90.91;98685.77;86341;1286;22487;-74
2022/12/06 03:50:46;;;;;;;111.20;63.00;;;;;;;2.81;90.84;98678.81;86427;1286;22464;-74
2022/12/06 03:52:51;;;;;;;112.20;61.00;;;;;;;2.82;90.86;98677.77;86156;1289;98420;-75
2022/12/06 03:54:52;;;;;;;89.20;52.00;;;;;;;2.82;90.86;98676.02;86407;1292;24925;-74
2022/12/06 03:56:53;;;;;;;83.00;50.90;;;;;;;2.80;90.92;98680.23;86342;1285;22748;-74
2022/12/06 03:58:54;;;;;;;86.60;50.20;;;;;;;2.77;90.98;98683.60;86259;1285;98899;-75
2022/12/06 04:01:03;;;;;;;84.10;52.20;;;;;;;2.75;90.79;98687.96;86260;1285;22574;-75
2022/12/06 04:03:04;;;;;;;93.30;51.50;;;;;;;2.73;90.71;98685.92;86208;1289;22560;-75
2022/12/06 04:05:05;;;;;;;84.30;48.10;;;;;;;2.74;90.86;98682.09;86173;1283;98356;-75
2022/12/06 04:07:08;;;;;;;87.60;49.80;;;;;;;2.71;90.74;98677.48;86186;1290;22519;-75
2022/12/06 04:11:28;;;;;;;91.20;53.30;;;;;;;2.68;90.67;98671.48;86243;1296;99245;-75
2022/12/06 04:13:30;;;;;;;86.50;51.40;;;;;;;2.66;90.90;98668.56;86220;1281;24267;-75
2022/12/06 04:15:35;;;;;;;98.10;53.20;;;;;;;2.65;90.84;98668.05;86179;1286;99070;-75
2022/12/06 04:18:23;;;;;;;100.50;50.50;;;;;;;2.65;90.77;98665.63;86433;1310;22547;-74
2022/12/06 04:20:00;;;;;;;89.50;45.10;;;;;;;2.64;90.81;98665.14;86152;1282;22582;-75
2022/12/06 04:24:20;;;;;;;93.90;49.40;;;;;;;2.60;90.65;98663.84;86368;1285;22659;-74
2022/12/06 04:26:22;;;;;;;86.00;50.00;;;;;;;2.59;90.80;98657.61;86330;1282;22593;-75
2022/12/06 04:40:01;;;;;;;87.10;48.80;;;;;;;2.51;91.03;98653.60;86194;1311;99973;-74
2022/12/06 04:44:23;;;;;;;97.50;51.10;;;;;;;2.50;90.96;98655.35;86822;1289;22506;-74
2022/12/06 04:46:24;;;;;;;100.20;54.40;;;;;;;2.50;90.80;98654.15;87211;1287;98527;-74
2022/12/06 04:48:25;;;;;;;103.10;54.90;;;;;;;2.48;90.98;98651.41;87869;1299;24279;-75
2022/12/06 04:50:26;;;;;;;104.60;54.40;;;;;;;2.48;91.09;98655.41;86776;1287;22528;-74
2022/12/06 04:52:27;;;;;;;95.50;48.70;;;;;;;2.47;91.22;98660.97;86599;1296;98863;-74
2022/12/06 04:54:29;;;;;;;94.00;49.40;;;;;;;2.46;90.95;98662.21;86914;1287;22531;-74
2022/12/06 04:56:30;;;;;;;108.10;52.70;;;;;;;2.46;91.05;98661.69;86998;1287;25275;-75
2022/12/06 04:58:31;;;;;;;96.30;51.30;;;;;;;2.46;90.76;98654.59;86726;1287;99552;-74
2022/12/06 05:00:32;;;;;;;99.10;53.00;;;;;;;2.45;90.75;98647.15;86552;1296;22778;-74
2022/12/06 05:02:33;;;;;;;101.40;50.30;;;;;;;2.45;90.88;98649.56;86427;1286;25196;-72
2022/12/06 05:04:34;;;;;;;106.40;53.00;;;;;;;2.46;90.90;98657.00;86521;1309;98486;-74
2022/12/06 05:06:35;;;;;;;101.30;53.10;;;;;;;2.48;90.93;98655.05;86324;1289;24285;-73
2022/12/06 05:08:36;;;;;;;98.60;52.90;;;;;;;2.49;91.16;98652.79;86438;1285;25319;-75
2022/12/06 05:10:38;;;;;;;95.00;49.80;;;;;;;2.51;91.27;98646.48;86318;1289;98200;-74
2022/12/06 05:12:39;;;;;;;88.00;47.40;;;;;;;2.52;91.13;98639.89;86506;1296;26746;-73
2022/12/06 05:14:40;;;;;;;87.40;49.80;;;;;;;2.50;91.00;98638.35;86511;1288;22530;-75
2022/12/06 05:16:41;;;;;;;91.20;47.30;;;;;;;2.49;90.77;98634.57;86417;1296;98858;-75
2022/12/06 05:18:42;;;;;;;97.70;48.20;;;;;;;2.48;90.96;98631.30;86450;1290;25279;-75
2022/12/06 05:20:45;;;;;;;92.10;47.00;;;;;;;2.48;91.12;98630.77;86462;1311;22507;-75
2022/12/06 05:22:46;;;;;;;93.40;48.50;;;;;;;2.49;91.17;98632.48;86267;1282;99397;-76
2022/12/06 05:24:47;;;;;;;98.60;49.80;;;;;;;2.49;90.96;98635.09;86549;1290;23543;-74
2022/12/06 05:26:48;;;;;;;92.10;49.40;;;;;;;2.49;90.75;98635.79;86228;1294;22661;-74
2022/12/06 05:28:49;;;;;;;92.00;47.60;;;;;;;2.49;90.93;98634.92;86401;1303;99772;-76
2022/12/06 05:30:50;;;;;;;106.20;50.40;;;;;;;2.50;90.89;98629.70;86449;1310;22681;-75
2022/12/06 05:32:51;;;;;;;108.90;50.60;;;;;;;2.51;91.09;98631.94;86541;1285;22627;-74
2022/12/06 05:34:52;;;;;;;101.70;50.90;;;;;;;2.53;91.20;98627.03;86295;1288;99668;-74
2022/12/06 05:36:53;;;;;;;101.20;50.30;;;;;;;2.53;91.00;98623.05;86356;1303;23941;-75
2022/12/06 05:38:55;;;;;;;103.60;51.50;;;;;;;2.54;91.05;98619.89;86301;1285;22510;-75
2022/12/06 05:40:56;;;;;;;108.90;52.00;;;;;;;2.55;90.80;98619.34;86374;1289;99942;-76
2022/12/06 05:42:57;;;;;;;;;;;;;;;2.56;91.16;98613.96;86560;1294;23922;-75
2022/12/06 05:44:58;;;;;;;103.00;49.20;;;;;;;2.52;91.01;98603.97;86236;1303;22454;-74
2022/12/06 05:46:59;;;;;;;96.90;50.60;;;;;;;2.55;91.03;98604.27;86394;1294;99906;-75
2022/12/06 05:49:00;;;;;;;98.40;51.40;;;;;;;2.53;91.23;98598.59;86389;1299;25387;-74
2022/12/06 05:51:01;;;;;;;107.30;52.80;;;;;;;2.53;91.18;98599.98;86568;1292;22478;-74
2022/12/06 05:53:02;;;;;;;91.70;48.90;;;;;;;2.53;91.11;98597.73;86902;1296;98872;-76
2022/12/06 05:55:03;;;;;;;;;;;;;;;2.51;91.27;98591.86;88092;1313;22585;-76
2022/12/06 05:57:04;;;;;;;86.00;45.70;;;;;;;2.50;90.87;98594.67;88258;1310;22554;-76
2022/12/06 05:59:05;;;;;;;92.90;48.30;;;;;;;2.39;91.27;98577.39;87926;1311;98307;-77
2022/12/06 06:01:09;;;;;;;87.90;46.30;;;;;;;2.49;91.17;98591.04;88152;1308;22505;-76
2022/12/06 06:03:10;;;;;;;82.80;46.30;;;;;;;2.48;90.88;98592.09;87230;1310;23557;-74
2022/12/06 06:05:12;;;;;;;85.00;46.10;;;;;;;2.48;90.98;98595.05;86848;1285;98253;-75
2022/12/06 06:07:13;;;;;;;90.80;47.70;;;;;;;2.48;90.98;98593.66;86453;1311;22643;-75
2022/12/06 06:09:14;;;;;;;96.40;48.80;;;;;;;2.49;90.96;98594.00;86388;1295;22478;-75
2022/12/06 06:11:15;;;;;;;100.10;48.60;;;;;;;2.49;90.85;98595.05;86190;1296;99375;-75
2022/12/06 06:13:16;;;;;;;100.40;50.20;;;;;;;2.50;90.99;98593.11;86273;1289;24274;-75
2022/12/06 06:15:17;;;;;;;99.10;49.20;;;;;;;2.51;91.09;98593.77;86118;1286;25368;-77
2022/12/06 06:17:18;;;;;;;108.30;48.80;;;;;;;2.51;91.32;98590.83;86036;1293;99375;-74
2022/12/06 06:19:22;;;;;;;83.10;46.50;;;;;;;2.52;91.35;98591.51;86054;1285;24260;-74
2022/12/06 06:21:23;;;;;;;81.20;46.50;;;;;;;2.51;91.01;98590.47;85977;1290;22486;-75
2022/12/06 06:23:26;;;;;;;85.70;47.10;;;;;;;2.50;90.98;98591.20;85901;1285;100072;-74
2022/12/06 06:25:27;;;;;;;95.50;47.00;;;;;;;2.49;90.94;98596.09;86177;1287;23076;-75
2022/12/06 06:27:31;;;;;;;84.40;45.30;;;;;;;2.48;90.97;98595.23;85888;1289;22519;-74
2022/12/06 06:29:32;;;;;;;82.70;45.60;;;;;;;2.48;91.04;98594.35;85821;1283;99320;-76
2022/12/06 06:31:34;;;;;;;85.80;44.90;;;;;;;2.49;90.89;98596.08;85720;1283;22512;-75
2022/12/06 06:33:35;;;;;;;91.70;47.50;;;;;;;2.48;91.37;98601.30;85881;1289;23412;-75
2022/12/06 06:35:37;;;;;;;;;;;;;;;2.46;91.17;98596.64;85984;1282;99213;-76
2022/12/06 06:37:38;;;;;;;87.30;46.90;;;;;;;2.45;91.07;98593.92;85981;1282;23039;-76
2022/12/06 06:39:39;;;;;;;82.70;45.20;;;;;;;2.43;91.24;98591.16;85891;1285;99548;-76
2022/12/06 06:41:39;;;;;;;93.20;46.80;;;;;;;2.44;91.00;98596.36;85850;1282;22602;-75
2022/12/06 06:43:40;;;;;;;88.20;46.60;;;;;;;2.43;91.38;98594.64;85861;1286;22497;-75
2022/12/06 06:45:41;;;;;;;88.20;47.00;;;;;;;2.43;91.07;98591.35;85758;1282;99251;-77
2022/12/06 06:47:43;;;;;;;105.20;48.60;;;;;;;2.42;91.31;98591.37;86021;1279;24932;-75
2022/12/06 06:49:43;;;;;;;107.20;49.10;;;;;;;2.43;91.12;98581.13;85906;1287;24895;-76
2022/12/06 06:51:45;;;;;;;91.20;47.90;;;;;;;2.44;91.24;98582.48;85839;1286;98839;-76
2022/12/06 06:53:46;;;;;;;99.50;47.30;;;;;;;2.44;91.01;98579.52;85925;1286;23226;-75
2022/12/06 06:55:47;;;;;;;107.70;54.40;;;;;;;2.44;90.95;98580.59;85749;1289;22542;-75
2022/12/06 06:57:48;;;;;;;108.00;52.70;;;;;;;2.45;91.15;98579.70;85782;1285;100144;-76
2022/12/06 06:59:50;;;;;;;112.80;53.90;;;;;;;2.45;91.09;98582.81;85820;1286;23295;-76
2022/12/06 07:01:51;;;;;;;98.80;50.50;;;;;;;2.46;91.16;98584.01;85920;1310;22579;-77
2022/12/06 07:03:52;;;;;;;91.20;48.30;;;;;;;2.45;91.46;98578.83;85830;1279;99658;-76
2022/12/06 07:05:58;;;;;;;105.40;47.40;;;;;;;2.45;91.12;98574.49;85877;1282;22500;-76
2022/12/06 07:07:59;;;;;;;85.60;47.10;;;;;;;2.45;91.17;98571.38;85980;1286;22582;-76
2022/12/06 07:10:00;;;;;;;89.10;47.30;;;;;;;2.44;91.39;98568.95;85844;1287;99401;-76
2022/12/06 07:12:01;;;;;;;82.80;46.20;;;;;;;2.44;91.22;98560.12;85949;1288;25522;-77
2022/12/06 07:14:03;;;;;;;92.30;49.40;;;;;;;2.42;91.49;98558.94;85936;1290;22474;-76
2022/12/06 07:16:05;;;;;;;95.80;47.80;;;;;;;2.40;91.26;98557.61;85805;1289;99318;-76
2022/12/06 07:18:06;;;;;;;106.80;50.10;;;;;;;2.39;91.28;98560.22;86211;1287;22554;-75
2022/12/06 07:20:08;;;;;;;105.30;40.40;;;;;;;2.40;91.57;98555.36;86028;1280;23650;-76
2022/12/06 07:22:09;;;;;;;82.80;46.30;;;;;;;2.38;91.42;98556.06;85852;1282;99783;-73
2022/12/06 07:24:10;;;;;;;;;;;;;;;2.37;91.24;98556.64;85843;1289;24207;-73
2022/12/06 07:26:14;;;;;;;83.60;46.20;;;;;;;2.36;91.40;98555.96;85881;1287;22437;-73
2022/12/06 07:28:15;;;;;;;83.60;44.80;;;;;;;2.36;91.45;98555.27;85860;1296;98759;-74
2022/12/06 07:30:16;;;;;;;81.30;43.40;;;;;;;2.35;91.40;98554.42;85854;1289;25233;-76
2022/12/06 07:32:17;;;;;;;;;;;;;;;2.35;91.60;98559.09;85925;1289;22453;-73
2022/12/06 07:34:18;;;;;;;80.20;42.20;;;;;;;2.33;91.49;98554.98;85704;1290;85529;-73
2022/12/06 07:36:21;;;;;;;87.70;43.50;;;;;;;2.34;91.64;98554.95;85910;1287;22599;-74
2022/12/06 07:38:22;;;;;;;83.40;45.50;;;;;;;2.33;91.47;98562.42;86295;1279;22523;-74
2022/12/06 07:40:23;;;;;;;85.10;44.50;;;;;;;2.34;91.39;98562.41;85740;1287;98646;-73
2022/12/06 07:45:04;;;;;;;73.20;41.70;;;;;;;2.32;91.70;98562.80;85879;1287;22588;-73
2022/12/06 07:47:05;;;;;;;71.00;38.50;;;;;;;2.31;91.53;98559.36;85851;1287;100026;-72
2022/12/06 07:49:06;;;;;;;74.60;40.00;;;;;;;2.30;91.24;98555.21;85864;1282;26576;-73
2022/12/06 07:51:07;;;;;;;65.40;37.00;;;;;;;2.29;91.43;98560.27;85909;1289;22946;-73
2022/12/06 07:53:08;;;;;;;76.60;42.50;;;;;;;2.28;91.43;98556.84;85803;1295;100430;-72
2022/12/06 07:55:10;;;;;;;86.00;44.90;;;;;;;2.29;91.51;98558.36;85804;1288;26749;-73
2022/12/06 07:57:11;;;;;;;82.70;45.50;;;;;;;2.30;91.35;98553.31;85856;1286;25714;-74
2022/12/06 07:59:13;;;;;;;91.50;47.90;;;;;;;2.31;91.49;98549.31;85752;1286;99788;-74
2022/12/06 08:01:14;;;;;;;83.60;47.60;;;;;;;2.31;91.70;98540.63;85826;1290;22570;-74
2022/12/06 08:03:16;;;;;;;;;;;;;;;2.29;91.57;98534.96;85803;1286;24265;-74
2022/12/06 08:05:17;;;;;;;66.10;36.90;;;;;;;2.25;91.67;98524.63;85880;1287;84377;-73
2022/12/06 08:07:19;;;;;;;64.20;37.10;;;;;;;2.24;91.38;98526.58;85797;1285;23349;-72
2022/12/06 08:09:21;;;;;;;71.60;38.10;;;;;;;2.22;91.69;98530.07;86050;1283;22496;-73
2022/12/06 08:11:23;;;;;;;64.60;36.10;;;;;;;2.23;91.77;98527.98;85700;1289;98306;-73
2022/12/06 08:13:24;;;;;;;62.90;35.80;;;;;;;2.24;91.56;98530.38;85929;1287;25338;-74
2022/12/06 08:15:25;;;;;;;70.30;35.50;;;;;;;2.25;91.77;98530.02;85799;1282;22666;-72
2022/12/06 08:17:28;;;;;;;56.20;34.90;;;;;;;2.26;91.61;98525.50;85807;1280;99506;-73
2022/12/06 08:19:29;;;;;;;71.60;42.40;;;;;;;2.26;91.69;98523.57;85939;1282;22513;-73
2022/12/06 08:21:31;;;;;;;65.60;38.60;;;;;;;2.25;91.62;98514.59;85935;1295;22494;-73
2022/12/06 08:23:32;;;;;;;65.30;37.80;;;;;;;2.26;91.78;98510.42;85639;1289;99242;-73
2022/12/06 08:25:34;;;;;;;68.20;39.20;;;;;;;2.26;92.01;98512.47;85904;1279;22495;-72
2022/12/06 08:27:35;;;;;;;74.30;39.00;;;;;;;2.28;91.69;98510.20;85716;1282;25390;-73
2022/12/06 08:29:36;;;;;;;66.60;40.60;;;;;;;2.31;91.69;98513.77;85763;1286;99199;-73
2022/12/06 08:31:39;;;;;;;76.00;41.60;;;;;;;2.34;91.79;98512.14;85687;1289;22520;-72
2022/12/06 08:33:40;;;;;;;79.80;42.20;;;;;;;2.35;91.56;98513.33;85754;1282;98643;-73
2022/12/06 08:35:41;;;;;;;64.40;36.90;;;;;;;2.37;91.83;98511.55;85933;1286;22772;-73
2022/12/06 08:37:42;;;;;;;65.80;36.50;;;;;;;2.39;91.74;98516.52;85779;1290;22424;-73
2022/12/06 08:39:43;;;;;;;57.20;35.30;;;;;;;2.40;91.69;98520.67;85814;1280;99783;-73
2022/12/06 08:42:01;;;;;;;59.10;34.50;;;;;;;2.41;91.91;98522.55;85632;1282;24427;-72
2022/12/06 08:44:03;;;;;;;57.00;32.50;;;;;;;2.43;91.65;98523.72;86022;1287;25398;-73
2022/12/06 08:46:05;;;;;;;57.00;32.50;;;;;;;2.42;91.65;98524.27;85831;1287;99481;-73
2022/12/06 08:48:06;;;;;;;54.90;31.70;;;;;;;2.43;91.66;98530.83;85942;1280;25271;-73
2022/12/06 08:50:07;;;;;;;;;;;;;;;2.41;91.73;98535.55;85801;1281;22479;-74
2022/12/06 08:52:09;;;;;;;50.70;31.20;;;;;;;2.40;91.41;98535.59;85881;1280;85685;-74
2022/12/06 08:54:13;;;;;;;49.80;31.00;;;;;;;2.40;91.71;98537.49;85737;1289;23718;-73
2022/12/06 08:56:14;;;;;;;52.70;31.60;;;;;;;2.39;91.61;98534.23;85794;1289;24426;-73
2022/12/06 08:58:15;;;;;;;50.60;30.00;;;;;;;2.37;91.55;98531.11;85626;1305;98971;-73
2022/12/06 09:00:17;;;;;;;55.60;31.90;;;;;;;2.37;91.80;98529.92;85838;1279;22511;-74
2022/12/06 09:02:18;;;;;;;55.00;32.40;;;;;;;2.35;91.98;98520.96;85803;1305;22851;-74
2022/12/06 09:04:19;;;;;;;55.00;33.90;;;;;;;2.40;91.79;98522.58;85871;1287;99929;-73
2022/12/06 09:06:21;;;;;;;61.20;35.20;;;;;;;2.40;91.86;98523.27;85834;1289;22487;-73
2022/12/06 09:08:23;;;;;;;55.60;34.30;;;;;;;2.42;91.68;98525.64;85888;1289;23001;-74
2022/12/06 09:10:24;;;;;;;61.90;36.40;;;;;;;2.43;91.85;98519.20;85883;1279;98454;-73
2022/12/06 09:12:25;;;;;;;53.10;34.00;;;;;;;2.44;91.83;98519.02;85912;1282;24246;-72
2022/12/06 09:14:26;;;;;;;54.20;33.80;;;;;;;2.44;91.60;98518.67;85893;1287;22853;-73
2022/12/06 09:16:27;;;;;;;54.00;34.30;;;;;;;2.43;91.55;98518.17;85819;1279;100033;-74
2022/12/06 09:18:28;;;;;;;52.60;34.40;;;;;;;2.45;91.73;98517.27;85819;1281;25501;-73
2022/12/06 09:20:29;;;;;;;;;;;;;;;2.44;91.75;98514.67;85928;1287;25287;-74
2022/12/06 09:22:30;;;;;;;60.00;34.10;;;;;;;2.45;91.84;98518.14;85809;1280;85586;-73
2022/12/06 09:24:31;;;;;;;59.30;37.00;;;;;;;2.46;91.72;98515.67;85853;1279;22667;-73
2022/12/06 09:26:32;;;;;;;56.20;33.30;;;;;;;2.47;91.99;98512.36;85833;1282;22651;-73
2022/12/06 09:28:35;;;;;;;58.60;35.60;;;;;;;2.47;91.87;98511.30;85753;1285;98268;-74
2022/12/06 09:30:36;;;;;;;60.30;35.70;;;;;;;2.47;91.96;98513.21;85926;1282;23385;-74
2022/12/06 09:32:37;;;;;;;58.00;33.90;;;;;;;2.49;91.78;98513.18;85866;1283;22640;-74
2022/12/06 09:34:38;;;;;;;56.20;34.00;;;;;;;2.50;91.82;98514.87;85807;1287;99823;-73
2022/12/06 09:36:57;;;;;;;65.30;36.60;;;;;;;2.52;91.87;98518.32;85824;1289;22616;-73
2022/12/06 09:39:11;;;;;;;67.00;36.50;;;;;;;2.54;91.93;98515.30;85951;1283;22534;-73
2022/12/06 09:41:24;;;;;;;61.10;37.20;;;;;;;2.56;91.78;98514.75;85968;1289;99527;-72
2022/12/06 09:43:48;;;;;;;62.40;35.50;;;;;;;2.57;91.91;98506.41;85895;1296;22995;-73
2022/12/06 09:45:59;;;;;;;73.90;36.60;;;;;;;2.58;91.66;98505.00;85914;1287;100152;-75
2022/12/06 09:48:23;;;;;;;73.10;35.40;;;;;;;2.60;91.74;98500.10;86095;1283;22613;-73
2022/12/06 09:50:44;;;;;;;58.40;35.40;;;;;;;2.61;92.02;98500.58;85963;1286;22476;-75
2022/12/06 09:53:22;;;;;;;58.60;35.10;;;;;;;2.62;91.96;98497.64;85820;1285;98376;-74
2022/12/06 09:56:02;;;;;;;65.00;34.60;;;;;;;2.62;91.88;98487.73;85875;1296;22544;-74
2022/12/06 09:58:12;;;;;;;65.90;35.20;;;;;;;2.62;92.00;98481.68;85880;1286;99229;-74